createdAt,value
2017-04-28T00:50:00.514Z,0
2017-04-28T00:50:48.970Z,0
2017-04-28T00:51:38.036Z,0
2017-04-28T00:52:26.693Z,0
2017-04-28T00:53:14.939Z,0
2017-04-28T00:54:03.526Z,0
2017-04-28T00:54:52.340Z,0
2017-04-28T00:55:41.799Z,0
2017-04-28T00:56:30.384Z,0
2017-04-28T00:57:19.293Z,0
2017-04-28T00:58:08.147Z,0
2017-04-28T00:58:56.319Z,0
2017-04-28T01:01:33.108Z,0
2017-04-28T01:02:21.955Z,0
2017-04-28T01:03:10.841Z,0
2017-04-28T01:03:59.127Z,0
2017-04-28T01:04:47.977Z,0
2017-04-28T01:05:36.527Z,0
2017-04-28T01:06:25.254Z,0
2017-04-28T01:07:13.785Z,0
2017-04-28T01:08:05.485Z,0
2017-04-28T01:08:53.776Z,0
2017-04-28T01:09:42.702Z,0
2017-04-28T01:10:30.999Z,0
2017-04-28T01:11:19.503Z,0
2017-04-28T01:12:07.984Z,0
2017-04-28T01:12:56.554Z,0
2017-04-28T01:13:45.188Z,0
2017-04-28T01:16:16.346Z,0
2017-04-28T01:20:16.962Z,0
2017-04-28T01:21:05.923Z,0
2017-04-28T01:27:53.328Z,0
2017-04-28T01:28:40.419Z,0
2017-04-28T01:29:28.782Z,0
2017-04-28T01:30:17.297Z,0
2017-04-28T01:31:05.976Z,0
2017-04-28T01:33:43.485Z,0
2017-04-28T01:34:32.999Z,0
2017-04-28T01:35:21.532Z,0
2017-04-28T01:36:10.514Z,0
2017-04-28T01:36:58.650Z,0
2017-04-28T01:37:47.790Z,0
2017-04-28T01:38:36.089Z,0
2017-04-28T01:44:35.812Z,0
2017-04-28T01:45:24.209Z,0
2017-04-28T01:46:14.419Z,0
2017-04-28T01:47:03.112Z,0
2017-04-28T01:47:51.745Z,0
2017-04-28T01:48:40.208Z,0
2017-04-28T01:49:29.610Z,0
2017-04-28T01:50:18.361Z,0
2017-04-28T01:51:07.138Z,0
2017-04-28T01:51:55.488Z,0
2017-04-28T01:52:44.385Z,0
2017-04-28T01:53:33.034Z,0
2017-04-28T01:54:23.929Z,0
2017-04-28T01:55:12.502Z,0
2017-04-28T01:56:01.392Z,0
2017-04-28T02:00:20.040Z,0
2017-04-28T02:01:08.479Z,0
2017-04-28T02:01:58.051Z,0
2017-04-28T02:02:45.810Z,0
2017-04-28T02:03:34.907Z,0
2017-04-28T02:04:22.862Z,0
2017-04-28T02:05:11.698Z,0
2017-04-28T02:06:00.496Z,0
2017-04-28T02:06:48.936Z,0
2017-04-28T02:07:37.455Z,0
2017-04-28T02:08:26.186Z,0
2017-04-28T02:09:14.600Z,0
2017-04-28T02:10:03.705Z,0
2017-04-28T02:10:52.090Z,0
2017-04-28T02:11:41.156Z,0
2017-04-28T02:12:29.287Z,0
2017-04-28T02:13:18.090Z,0
2017-04-28T02:16:23.434Z,0
2017-04-28T02:17:12.595Z,0
2017-04-28T02:18:00.797Z,0
2017-04-28T02:18:49.533Z,0
2017-04-28T02:19:38.189Z,0
2017-04-28T02:20:26.419Z,0
2017-04-28T02:21:15.570Z,0
2017-04-28T02:22:04.237Z,0
2017-04-28T02:22:52.764Z,0
2017-04-28T02:23:41.162Z,0
2017-04-28T02:24:30.028Z,0
2017-04-28T02:25:18.407Z,0
2017-04-28T02:26:07.157Z,0
2017-04-28T02:28:31.660Z,0
2017-04-28T02:31:11.256Z,0
2017-04-28T02:31:59.471Z,0
2017-04-28T02:32:48.810Z,0
2017-04-28T02:33:47.840Z,0
2017-04-28T02:39:05.849Z,0
2017-04-28T02:39:54.251Z,0
2017-04-28T02:40:42.810Z,0
2017-04-28T02:41:31.422Z,0
2017-04-28T02:42:19.950Z,0
2017-04-28T02:43:08.491Z,0
2017-04-28T02:43:57.003Z,0
2017-04-28T02:44:45.839Z,0
2017-04-28T02:45:34.389Z,0
2017-04-28T02:46:22.825Z,0
2017-04-28T03:03:22.710Z,0
2017-04-28T03:06:13.022Z,0
2017-04-28T03:07:02.494Z,0
2017-04-28T03:07:51.363Z,0
2017-04-28T03:08:40.022Z,0
2017-04-28T03:09:28.776Z,0
2017-04-28T03:10:17.135Z,0
2017-04-28T03:11:05.497Z,0
2017-04-28T03:11:54.117Z,0
2017-04-28T03:12:43.176Z,0
2017-04-28T03:13:31.425Z,0
2017-04-28T03:14:19.958Z,0
2017-04-28T03:15:08.818Z,0
2017-04-28T03:15:57.274Z,0
2017-04-28T03:16:46.141Z,0
2017-04-28T03:17:34.770Z,0
2017-04-28T03:18:23.367Z,0
2017-04-28T03:19:11.726Z,0
2017-04-28T03:20:02.343Z,0
2017-04-28T03:20:51.648Z,0
2017-04-28T03:51:02.728Z,0
2017-04-28T03:51:43.162Z,0
2017-04-28T03:52:23.608Z,0
2017-04-28T03:53:09.813Z,0
2017-04-28T03:53:53.034Z,0
2017-04-28T03:54:38.788Z,0
2017-04-28T03:55:27.732Z,0
2017-04-28T03:56:15.078Z,0
2017-04-28T03:56:56.766Z,0
2017-04-28T03:57:41.716Z,0
2017-04-28T03:58:23.142Z,0
2017-04-28T03:59:08.310Z,0
2017-04-28T04:00:00.021Z,5
2017-04-28T04:00:45.632Z,5
2017-04-28T04:01:29.137Z,5
2017-04-28T04:02:13.577Z,5
2017-04-28T04:02:57.992Z,5
2017-04-28T04:03:41.755Z,5
2017-04-28T04:04:26.973Z,5
2017-04-28T04:05:13.314Z,5
2017-04-28T04:06:03.733Z,5
2017-04-28T04:06:51.857Z,5
2017-04-28T04:07:35.769Z,10
2017-04-28T04:08:18.957Z,10
2017-04-28T04:11:00.148Z,10
2017-04-28T04:11:49.016Z,10
2017-04-28T04:12:37.517Z,15
2017-04-28T04:13:26.365Z,15
2017-04-28T04:14:16.003Z,15
2017-04-28T04:15:04.704Z,15
2017-04-28T04:15:53.056Z,20
2017-04-28T04:16:42.178Z,20
2017-04-28T04:17:30.495Z,20
2017-04-28T04:20:12.699Z,25
2017-04-28T04:21:02.328Z,25
2017-04-28T04:21:50.873Z,25
2017-04-28T04:22:42.238Z,25
2017-04-28T04:23:31.243Z,30
2017-04-28T04:24:19.840Z,30
2017-04-28T04:25:08.969Z,30
2017-04-28T04:25:58.004Z,35
2017-04-28T04:26:46.788Z,35
2017-04-28T04:27:35.588Z,35
2017-04-28T04:28:24.256Z,40
2017-04-28T04:29:16.390Z,40
2017-04-28T04:30:06.312Z,40
2017-04-28T04:30:56.590Z,45
2017-04-28T04:31:46.398Z,45
2017-04-28T04:32:36.047Z,45
2017-04-28T04:33:25.172Z,50
2017-04-28T04:34:14.014Z,50
2017-04-28T04:35:03.622Z,50
2017-04-28T04:35:51.779Z,55
2017-04-28T04:36:40.250Z,55
2017-04-28T04:37:28.948Z,60
2017-04-28T04:38:17.960Z,60
2017-04-28T04:39:06.016Z,65
2017-04-28T04:39:55.383Z,65
2017-04-28T04:40:44.443Z,65
2017-04-28T04:41:32.683Z,70
2017-04-28T04:42:21.318Z,70
2017-04-28T04:43:09.882Z,70
2017-04-28T04:44:00.482Z,75
2017-04-28T04:44:49.602Z,75
2017-04-28T04:45:38.051Z,75
2017-04-28T04:46:27.188Z,75
2017-04-28T04:48:55.190Z,80
2017-04-28T04:49:42.076Z,85
2017-04-28T04:50:31.128Z,85
2017-04-28T04:51:19.972Z,85
2017-04-28T04:52:08.244Z,85
2017-04-28T04:52:56.752Z,85
2017-04-28T04:53:45.497Z,85
2017-04-28T04:54:33.990Z,90
2017-04-28T04:55:22.751Z,90
2017-04-28T04:56:11.632Z,90
2017-04-28T04:57:00.343Z,90
2017-04-28T04:57:49.743Z,90
2017-04-28T04:58:38.231Z,90
2017-04-28T04:59:27.169Z,95
2017-04-28T05:00:15.644Z,95
2017-04-28T05:01:04.291Z,95
2017-04-28T05:01:53.125Z,100
2017-04-28T05:02:41.834Z,100
2017-04-28T05:03:30.432Z,105
2017-04-28T05:04:19.627Z,105
2017-04-28T05:05:07.476Z,105
2017-04-28T05:05:57.861Z,110
2017-04-28T05:06:46.746Z,110
2017-04-28T05:07:35.256Z,110
2017-04-28T05:08:24.194Z,115
2017-04-28T05:09:13.820Z,115
2017-04-28T05:10:03.208Z,115
2017-04-28T05:10:53.983Z,120
2017-04-28T05:11:40.743Z,120
2017-04-28T05:12:29.676Z,125
2017-04-28T05:13:18.229Z,125
2017-04-28T05:14:06.812Z,130
2017-04-28T05:14:55.650Z,135
2017-04-28T05:15:44.962Z,135
2017-04-28T05:16:34.285Z,140
2017-04-28T05:17:22.975Z,145
2017-04-28T05:18:11.723Z,145
2017-04-28T05:19:00.832Z,145
2017-04-28T05:19:49.401Z,150
2017-04-28T05:20:37.906Z,155
2017-04-28T05:21:26.912Z,165
2017-04-28T05:22:15.383Z,165
2017-04-28T05:23:03.953Z,170
2017-04-28T05:23:52.459Z,170
2017-04-28T05:24:41.417Z,170
2017-04-28T05:25:29.923Z,175
2017-04-28T05:26:18.604Z,185
2017-04-28T05:27:07.262Z,190
2017-04-28T05:27:56.238Z,195
2017-04-28T05:28:44.298Z,195
2017-04-28T05:29:33.126Z,200
2017-04-28T05:30:22.502Z,205
2017-04-28T05:31:10.526Z,210
2017-04-28T05:31:59.241Z,215
2017-04-28T05:32:48.446Z,210
2017-04-28T05:33:37.202Z,225
2017-04-28T05:34:25.426Z,230
2017-04-28T05:35:13.952Z,230
2017-04-28T05:36:02.797Z,235
2017-04-28T05:36:51.276Z,235
2017-04-28T05:39:39.141Z,240
2017-04-28T05:40:27.719Z,245
2017-04-28T05:41:16.866Z,245
2017-04-28T05:42:05.374Z,245
2017-04-28T05:42:56.701Z,240
2017-04-28T05:43:46.884Z,240
2017-04-28T05:44:41.306Z,235
2017-04-28T05:45:31.752Z,220
2017-04-28T05:46:22.551Z,220
2017-04-28T05:47:11.707Z,240
2017-04-28T05:48:01.881Z,215
2017-04-28T05:48:54.384Z,190
2017-04-28T05:49:44.891Z,215
2017-04-28T05:50:35.740Z,200
2017-04-28T05:51:27.159Z,205
2017-04-28T05:52:18.176Z,240
2017-04-28T05:53:06.956Z,230
2017-04-28T05:53:55.816Z,250
2017-04-28T05:54:49.202Z,255
2017-04-28T05:55:38.141Z,235
2017-04-28T05:56:28.740Z,250
2017-04-28T05:57:19.785Z,250
2017-04-28T05:58:10.915Z,255
2017-04-28T05:58:59.821Z,255
2017-04-28T05:59:52.713Z,255
2017-04-28T06:00:42.162Z,255
2017-04-28T06:01:31.908Z,245
2017-04-28T06:02:23.164Z,240
2017-04-28T06:03:12.719Z,220
2017-04-28T06:04:04.593Z,230
2017-04-28T06:04:56.822Z,245
2017-04-28T06:05:49.436Z,250
2017-04-28T06:06:39.901Z,230
2017-04-28T06:07:30.349Z,245
2017-04-28T06:08:21.301Z,270
2017-04-28T06:09:12.352Z,265
2017-04-28T06:10:07.691Z,270
2017-04-28T06:10:57.459Z,275
2017-04-28T06:11:48.554Z,285
2017-04-28T06:12:39.654Z,305
2017-04-28T06:13:28.232Z,290
2017-04-28T06:14:19.327Z,305
2017-04-28T06:15:11.360Z,310
2017-04-28T06:16:02.664Z,330
2017-04-28T06:16:53.645Z,340
2017-04-28T06:17:42.252Z,355
2017-04-28T06:18:31.460Z,365
2017-04-28T06:19:21.449Z,375
2017-04-28T06:20:17.588Z,380
2017-04-28T06:21:08.562Z,375
2017-04-28T06:21:58.224Z,385
2017-04-28T06:22:47.727Z,395
2017-04-28T06:23:38.427Z,395
2017-04-28T06:24:30.115Z,400
2017-04-28T06:25:22.665Z,405
2017-04-28T06:26:13.757Z,410
2017-04-28T06:27:05.874Z,415
2017-04-28T06:27:54.790Z,415
2017-04-28T06:35:33.339Z,435
2017-04-28T06:36:22.570Z,435
2017-04-28T06:39:05.861Z,430
2017-04-28T06:43:04.464Z,455
2017-04-28T06:43:53.471Z,455
2017-04-28T06:44:41.897Z,460
2017-04-28T06:45:30.427Z,465
2017-04-28T06:46:19.546Z,470
2017-04-28T06:49:08.622Z,485
2017-04-28T06:49:56.914Z,490
2017-04-28T06:50:45.354Z,495
2017-04-28T06:51:34.153Z,505
2017-04-28T06:52:23.032Z,505
2017-04-28T06:54:43.844Z,510
2017-04-28T06:55:36.469Z,515
2017-04-28T06:56:25.819Z,520
2017-04-28T06:57:14.499Z,520
2017-04-28T06:58:03.704Z,525
2017-04-28T07:00:31.127Z,535
2017-04-28T07:01:19.518Z,535
2017-04-28T07:02:08.263Z,530
2017-04-28T07:02:57.692Z,525
2017-04-28T07:03:46.360Z,530
2017-04-28T07:08:04.719Z,540
2017-04-28T07:08:53.438Z,540
2017-04-28T07:09:41.872Z,530
2017-04-28T07:10:30.411Z,520
2017-04-28T07:11:21.185Z,515
2017-04-28T07:12:09.372Z,520
2017-04-28T07:12:58.086Z,530
2017-04-28T07:13:46.494Z,535
2017-04-28T07:14:35.200Z,540
2017-04-28T07:15:23.876Z,555
2017-04-28T07:16:12.447Z,560
2017-04-28T07:17:01.254Z,570
2017-04-28T07:17:49.605Z,585
2017-04-28T07:18:39.952Z,600
2017-04-28T07:19:28.179Z,620
2017-04-28T07:20:16.822Z,625
2017-04-28T07:21:05.462Z,645
2017-04-28T07:23:29.434Z,760
2017-04-28T07:24:18.130Z,810
2017-04-28T07:25:06.857Z,875
2017-04-28T07:25:55.640Z,940
2017-04-28T07:26:44.402Z,985
2017-04-28T07:27:32.693Z,1015
2017-04-28T07:28:21.714Z,1045
2017-04-28T07:29:10.016Z,1075
2017-04-28T07:29:58.602Z,1130
2017-04-28T07:30:47.200Z,1255
2017-04-28T07:31:36.235Z,1650
2017-04-28T07:32:24.710Z,2005
2017-04-28T07:33:13.294Z,2185
2017-04-28T07:34:02.461Z,2310
2017-04-28T07:34:50.734Z,2330
2017-04-28T07:35:39.529Z,2535
2017-04-28T07:36:27.977Z,2480
2017-04-28T07:37:17.154Z,2420
2017-04-28T07:38:05.953Z,2475
2017-04-28T07:38:54.357Z,2610
2017-04-28T07:50:39.929Z,2845
2017-04-28T07:51:30.726Z,2990
2017-04-28T07:52:21.851Z,3030
2017-04-28T07:53:12.277Z,2975
2017-04-28T07:54:02.856Z,3170
2017-04-28T07:54:53.846Z,3065
2017-04-28T07:55:44.781Z,3065
2017-04-28T07:56:34.315Z,3185
2017-04-28T08:02:18.458Z,3180
2017-04-28T08:05:10.715Z,3325
2017-04-28T08:05:59.368Z,3350
2017-04-28T08:06:48.143Z,3415
2017-04-28T08:07:36.781Z,3245
2017-04-28T08:08:27.149Z,3160
2017-04-28T08:09:15.738Z,3315
2017-04-28T08:10:04.625Z,3390
2017-04-28T08:10:53.150Z,3325
2017-04-28T08:11:41.943Z,3385
2017-04-28T08:12:30.306Z,3500
2017-04-28T08:13:19.105Z,3500
2017-04-28T08:19:18.881Z,3380
2017-04-28T08:20:10.654Z,3395
2017-04-28T08:20:59.124Z,3465
2017-04-28T08:21:52.209Z,3515
2017-04-28T08:22:40.233Z,3575
2017-04-28T08:23:31.200Z,3745
2017-04-28T08:24:20.371Z,3645
2017-04-28T08:25:09.191Z,3565
2017-04-28T08:26:00.864Z,3725
2017-04-28T08:26:53.766Z,3700
2017-04-28T08:27:41.916Z,3450
2017-04-28T08:28:33.343Z,3590
2017-04-28T08:29:28.389Z,3680
2017-04-28T08:30:19.829Z,3670
2017-04-28T08:31:06.280Z,3630
2017-04-28T08:40:15.807Z,4225
2017-04-28T08:41:14.493Z,4165
2017-04-28T08:42:08.810Z,3905
2017-04-28T08:43:02.233Z,3600
2017-04-28T08:43:55.780Z,3840
2017-04-28T08:44:48.562Z,4060
2017-04-28T08:55:35.203Z,4400
2017-04-28T08:56:23.579Z,4495
2017-04-28T08:57:12.443Z,4445
2017-04-28T08:58:01.585Z,4390
2017-04-28T08:58:50.023Z,4225
2017-04-28T08:59:38.358Z,4450
2017-04-28T09:00:27.123Z,4680
2017-04-28T09:01:16.649Z,4790
2017-04-28T09:02:05.494Z,4315
2017-04-28T10:05:35.130Z,1440
2017-04-28T10:09:50.494Z,1455
2017-04-28T10:10:39.486Z,1400
2017-04-28T10:11:29.741Z,1340
2017-04-28T10:12:18.726Z,1280
2017-04-28T10:13:10.720Z,1260
2017-04-28T10:14:00.070Z,1245
2017-04-28T10:14:49.378Z,1250
2017-04-28T10:17:10.178Z,1355
2017-04-28T10:17:58.608Z,1870
2017-04-28T10:18:47.526Z,1410
2017-04-28T10:19:36.003Z,1420
2017-04-28T10:20:24.602Z,1485
2017-04-28T10:21:13.775Z,1620
2017-04-28T10:22:02.005Z,1920
2017-04-28T10:26:09.467Z,5135
2017-04-28T10:26:58.528Z,4690
2017-04-28T10:27:47.886Z,3895
2017-04-28T10:28:44.989Z,4825
2017-04-28T11:12:17.762Z,470
2017-04-28T11:13:06.065Z,475
2017-04-28T11:13:55.164Z,485
2017-04-28T11:14:43.444Z,500
2017-04-28T11:15:32.843Z,515
2017-04-28T11:16:21.893Z,535
2017-04-28T11:17:10.379Z,585
2017-04-28T11:17:59.000Z,670
2017-04-28T11:18:48.315Z,615
2017-04-28T11:19:37.702Z,610
2017-04-28T11:20:25.923Z,625
2017-04-28T11:21:14.666Z,655
2017-04-28T11:22:05.477Z,670
2017-04-28T11:22:52.428Z,675
2017-04-28T11:23:41.791Z,685
2017-04-28T11:28:02.349Z,720
2017-04-28T11:28:51.222Z,735
2017-04-28T11:29:39.600Z,760
2017-04-28T11:30:28.132Z,800
2017-04-28T11:31:17.003Z,860
2017-04-28T11:32:05.877Z,945
2017-04-28T11:32:54.197Z,1105
2017-04-28T11:33:43.090Z,1610
2017-04-28T11:34:32.169Z,2005
2017-04-28T11:35:20.980Z,2695
2017-04-28T11:36:09.980Z,3325
2017-04-28T11:36:58.510Z,4570
2017-04-28T11:37:46.975Z,4145
2017-04-28T11:38:35.846Z,5215
2017-04-28T11:39:24.529Z,5105
2017-04-28T11:40:13.373Z,4315
2017-04-28T11:41:01.575Z,1240
2017-04-28T11:45:23.379Z,850
2017-04-28T11:46:12.104Z,800
2017-04-28T11:47:01.148Z,755
2017-04-28T11:47:49.289Z,710
2017-04-28T11:48:37.897Z,650
2017-04-28T11:49:26.680Z,585
2017-04-28T11:50:15.271Z,535
2017-04-28T11:51:04.124Z,480
2017-04-28T11:51:53.073Z,435
2017-04-28T11:52:41.702Z,395
2017-04-28T11:53:31.854Z,360
2017-04-28T11:54:20.225Z,340
2017-04-28T11:55:09.254Z,325
2017-04-28T11:55:57.772Z,320
2017-04-28T11:56:46.333Z,320
2017-04-28T11:57:35.041Z,330
2017-04-28T11:58:24.060Z,340
2017-04-28T11:59:14.382Z,360
2017-04-28T12:00:03.711Z,380
2017-04-28T12:00:51.669Z,405
2017-04-28T12:01:40.657Z,430
2017-04-28T12:02:28.890Z,475
2017-04-28T12:03:18.247Z,515
2017-04-28T12:04:06.349Z,565
2017-04-28T12:06:28.385Z,790
2017-04-28T12:07:16.577Z,890
2017-04-28T12:08:05.402Z,1010
2017-04-28T12:08:53.720Z,1105
2017-04-28T12:09:42.577Z,1120
2017-04-28T12:10:31.022Z,1085
2017-04-28T12:11:19.574Z,1105
2017-04-28T12:12:08.126Z,1195
2017-04-28T12:12:57.011Z,1360
2017-04-28T12:13:45.544Z,1575
2017-04-28T12:14:34.383Z,2600
2017-04-28T12:15:22.697Z,4510
2017-04-28T12:19:47.638Z,4660
2017-04-28T12:20:35.749Z,4735
2017-04-28T12:21:24.035Z,4505
2017-04-28T12:22:13.209Z,4385
2017-04-28T12:23:01.807Z,4440
2017-04-28T12:23:50.903Z,4450
2017-04-28T12:24:40.235Z,4445
2017-04-28T12:25:27.834Z,4340
2017-04-28T12:26:18.316Z,4150
2017-04-28T12:27:06.982Z,1655
2017-04-28T12:27:55.705Z,1510
2017-04-28T12:28:43.885Z,1520
2017-04-28T12:29:32.825Z,3560
2017-04-28T12:30:21.440Z,1520
2017-04-28T12:31:09.995Z,1365
2017-04-28T12:31:59.251Z,1590
2017-04-28T12:32:47.542Z,1355
2017-04-28T12:33:36.298Z,1430
2017-04-28T12:34:25.176Z,3195
2017-04-28T12:35:13.429Z,1245
2017-04-28T12:36:01.966Z,1155
2017-04-28T12:36:50.847Z,1115
2017-04-28T12:37:36.000Z,1130
2017-04-28T12:38:16.310Z,1195
2017-04-28T12:38:59.821Z,1860
2017-04-28T12:39:41.742Z,2685
2017-04-28T12:40:22.914Z,2275
2017-04-28T12:41:04.440Z,2330
2017-04-28T12:41:46.891Z,2405
2017-04-28T12:42:28.980Z,3120
2017-04-28T12:43:09.395Z,2965
2017-04-28T12:43:51.162Z,2220
2017-04-28T12:44:31.721Z,2210
2017-04-28T12:45:12.158Z,1785
2017-04-28T12:45:53.536Z,1595
2017-04-28T12:46:35.308Z,1460
2017-04-28T12:47:16.413Z,1380
2017-04-28T12:47:57.190Z,1315
2017-04-28T12:48:38.659Z,1260
2017-04-28T12:49:20.799Z,1210
2017-04-28T12:50:01.845Z,1160
2017-04-28T12:50:42.548Z,1105
2017-04-28T12:51:24.408Z,1055
2017-04-28T12:52:04.811Z,1005
2017-04-28T12:52:46.245Z,955
2017-04-28T12:53:27.581Z,915
2017-04-28T12:54:09.612Z,865
2017-04-28T12:54:50.071Z,820
2017-04-28T12:55:30.581Z,775
2017-04-28T12:56:13.915Z,740
2017-04-28T12:56:54.416Z,705
2017-04-28T12:57:35.843Z,670
2017-04-28T12:58:17.031Z,645
2017-04-28T12:58:57.596Z,625
2017-04-28T12:59:40.049Z,620
2017-04-28T13:00:22.943Z,620
2017-04-28T13:01:03.692Z,630
2017-04-28T13:01:46.306Z,660
2017-04-28T13:02:28.430Z,705
2017-04-28T13:03:10.527Z,760
2017-04-28T13:03:51.481Z,815
2017-04-28T13:04:31.940Z,880
2017-04-28T13:05:13.064Z,1000
2017-04-28T13:05:53.595Z,1145
2017-04-28T13:06:34.833Z,1260
2017-04-28T13:07:16.075Z,1340
2017-04-28T13:07:58.281Z,1380
2017-04-28T13:08:39.590Z,1390
2017-04-28T13:09:20.878Z,1380
2017-04-28T13:10:03.734Z,1365
2017-04-28T13:10:46.959Z,1360
2017-04-28T13:11:27.324Z,1365
2017-04-28T13:12:07.853Z,1375
2017-04-28T13:12:48.238Z,1375
2017-04-28T13:13:29.747Z,1365
2017-04-28T13:14:11.876Z,1345
2017-04-28T13:14:53.142Z,1305
2017-04-28T13:15:33.601Z,1250
2017-04-28T13:16:15.223Z,1200
2017-04-28T13:16:56.344Z,1165
2017-04-28T13:17:37.814Z,1130
2017-04-28T13:18:19.347Z,1110
2017-04-28T13:19:01.330Z,1100
2017-04-28T13:19:41.679Z,1080
2017-04-28T13:20:23.166Z,1065
2017-04-28T13:21:03.636Z,1050
2017-04-28T13:24:59.361Z,1055
2017-04-28T13:25:48.441Z,1095
2017-04-28T13:26:38.503Z,1120
2017-04-28T13:27:26.568Z,1170
2017-04-28T13:28:17.638Z,1225
2017-04-28T13:29:06.443Z,1235
2017-04-28T13:29:55.065Z,1205
2017-04-28T13:30:44.720Z,1165
2017-04-28T13:31:33.451Z,1100
2017-04-28T13:32:21.951Z,1050
2017-04-28T13:33:12.000Z,995
2017-04-28T13:33:59.307Z,950
2017-04-28T13:34:48.067Z,920
2017-04-28T13:35:36.416Z,885
2017-04-28T13:36:25.927Z,850
2017-04-28T13:37:14.763Z,805
2017-04-28T13:38:03.399Z,765
2017-04-28T13:38:52.412Z,730
2017-04-28T13:39:41.350Z,705
2017-04-28T13:40:29.267Z,680
2017-04-28T13:41:17.933Z,645
2017-04-28T13:42:06.722Z,610
2017-04-28T13:42:55.567Z,580
2017-04-28T13:43:44.179Z,550
2017-04-28T13:49:19.855Z,455
2017-04-28T13:50:08.692Z,470
2017-04-28T13:50:57.460Z,495
2017-04-28T13:51:45.775Z,535
2017-04-28T13:52:34.391Z,585
2017-04-28T13:53:23.180Z,650
2017-04-28T13:54:12.834Z,710
2017-04-28T13:55:01.574Z,765
2017-04-28T13:55:50.131Z,805
2017-04-28T13:56:38.857Z,845
2017-04-28T13:57:30.305Z,890
2017-04-28T13:58:22.278Z,930
2017-04-28T13:59:11.062Z,945
2017-04-28T13:59:59.691Z,960
2017-04-28T14:00:48.045Z,965
2017-04-28T14:01:36.830Z,975
2017-04-28T14:02:25.473Z,985
2017-04-28T14:03:14.177Z,1020
2017-04-28T14:04:02.761Z,1025
2017-04-28T14:08:05.988Z,900
2017-04-28T14:08:55.467Z,875
2017-04-28T14:09:45.330Z,865
2017-04-28T14:10:33.691Z,865
2017-04-28T14:11:24.072Z,875
2017-04-28T14:12:16.343Z,870
2017-04-28T14:13:06.920Z,860
2017-04-28T14:22:44.348Z,815
2017-04-28T14:28:57.517Z,770
2017-04-28T14:29:54.467Z,745
2017-04-28T14:30:37.283Z,730
2017-04-28T14:31:25.880Z,735
2017-04-28T14:33:51.805Z,770
2017-04-28T14:34:41.677Z,760
2017-04-28T14:35:29.933Z,750
2017-04-28T14:36:18.797Z,750
2017-04-28T14:38:45.374Z,720
2017-04-28T14:39:34.259Z,725
2017-04-28T14:40:22.841Z,720
2017-04-28T14:41:12.837Z,715
2017-04-28T14:42:01.537Z,710
2017-04-28T14:42:50.535Z,700
2017-04-28T14:43:39.065Z,700
2017-04-28T14:44:27.907Z,705
2017-04-28T14:45:16.855Z,710
2017-04-28T14:46:05.299Z,705
2017-04-28T14:46:54.485Z,700
2017-04-28T14:51:10.028Z,580
2017-04-28T14:51:58.636Z,570
2017-04-28T14:54:21.323Z,540
2017-04-28T14:55:09.868Z,520
2017-04-28T14:55:58.565Z,500
2017-04-28T14:56:47.330Z,480
2017-04-28T14:57:35.837Z,460
2017-04-28T14:58:24.721Z,445
2017-04-28T14:59:15.566Z,430
2017-04-28T15:00:04.987Z,420
2017-04-28T15:00:53.808Z,415
2017-04-28T15:01:42.867Z,410
2017-04-28T15:02:30.936Z,410
2017-04-28T15:03:19.523Z,390
2017-04-28T15:04:08.648Z,405
2017-04-28T15:04:57.406Z,405
2017-04-28T15:05:45.935Z,400
2017-04-28T15:06:34.802Z,400
2017-04-28T15:07:22.963Z,400
2017-04-28T15:08:11.815Z,400
2017-04-28T15:09:00.328Z,400
2017-04-28T15:09:48.820Z,400
2017-04-28T15:10:37.427Z,405
2017-04-28T15:11:26.140Z,415
2017-04-28T15:12:14.822Z,415
2017-04-28T15:13:03.784Z,425
2017-04-28T15:13:52.257Z,425
2017-04-28T15:14:41.345Z,430
2017-04-28T15:15:30.266Z,430
2017-04-28T15:16:18.515Z,430
2017-04-28T15:17:07.059Z,435
2017-04-28T15:17:56.185Z,425
2017-04-28T15:18:44.388Z,420
2017-04-28T15:19:32.926Z,435
2017-04-28T15:20:19.330Z,470
2017-04-28T15:21:03.907Z,490
2017-04-28T15:21:45.432Z,520
2017-04-28T15:22:27.489Z,555
2017-04-28T15:23:10.225Z,585
2017-04-28T15:23:50.904Z,615
2017-04-28T15:24:31.306Z,630
2017-04-28T15:25:11.876Z,615
2017-04-28T15:25:59.886Z,605
2017-04-28T15:28:38.580Z,530
2017-04-28T15:29:26.951Z,520
2017-04-28T15:30:15.897Z,515
2017-04-28T15:31:03.896Z,520
2017-04-28T15:33:26.617Z,515
2017-04-28T15:34:14.939Z,515
2017-04-28T15:35:03.905Z,485
2017-04-28T15:35:52.028Z,475
2017-04-28T15:36:41.105Z,460
2017-04-28T15:37:29.455Z,450
2017-04-28T15:38:18.036Z,430
2017-04-28T15:39:06.547Z,420
2017-04-28T15:39:55.354Z,415
2017-04-28T15:40:44.028Z,415
2017-04-28T15:41:32.665Z,415
2017-04-28T15:42:23.573Z,415
2017-04-28T15:43:13.537Z,415
2017-04-28T15:44:02.179Z,410
2017-04-28T15:44:50.971Z,405
2017-04-28T15:45:39.503Z,400
2017-04-28T15:46:28.063Z,390
2017-04-28T15:47:17.392Z,370
2017-04-28T15:48:06.825Z,370
2017-04-28T15:48:55.151Z,360
2017-04-28T15:49:43.681Z,360
2017-04-28T15:50:32.893Z,370
2017-04-28T15:51:21.115Z,385
2017-04-28T15:52:09.642Z,400
2017-04-28T15:52:58.704Z,415
2017-04-28T15:53:47.088Z,425
2017-04-28T15:54:35.667Z,445
2017-04-28T15:55:24.445Z,455
2017-04-28T15:56:13.312Z,450
2017-04-28T15:57:01.780Z,450
2017-04-28T15:57:50.742Z,445
2017-04-28T15:58:38.777Z,435
2017-04-28T16:04:12.506Z,440
2017-04-28T16:05:01.290Z,435
2017-04-28T16:05:51.932Z,425
2017-04-28T16:06:40.178Z,410
2017-04-28T16:07:27.921Z,400
2017-04-28T16:08:16.621Z,395
2017-04-28T16:09:07.150Z,395
2017-04-28T16:09:55.390Z,395
2017-04-28T16:10:51.472Z,385
2017-04-28T16:11:39.773Z,380
2017-04-28T16:12:28.496Z,355
2017-04-28T16:13:17.595Z,345
2017-04-28T16:26:05.393Z,345
2017-04-28T16:26:54.004Z,335
2017-04-28T16:27:43.123Z,325
2017-04-28T16:28:33.356Z,315
2017-04-28T16:29:22.335Z,300
2017-04-28T16:30:11.827Z,290
2017-04-28T16:31:00.274Z,285
2017-04-28T16:31:48.706Z,285
2017-04-28T16:32:37.839Z,295
2017-04-28T16:33:26.358Z,315
2017-04-28T16:34:14.889Z,335
2017-04-28T16:35:03.359Z,360
2017-04-28T16:40:34.611Z,320
2017-04-28T16:41:23.127Z,290
2017-04-28T16:56:57.147Z,160
2017-04-28T16:57:45.643Z,160
2017-04-28T16:58:34.566Z,165
2017-04-28T17:36:04.307Z,85
2017-04-28T17:36:52.845Z,85
2017-04-28T17:37:41.601Z,85
2017-04-28T18:07:32.353Z,50
2017-04-28T18:08:21.361Z,50
2017-04-28T18:09:10.012Z,50
2017-04-28T18:09:59.081Z,45
2017-04-28T18:23:05.309Z,25
2017-04-28T18:23:54.097Z,25
2017-04-28T18:24:42.314Z,25
2017-04-28T18:29:06.915Z,15
2017-04-28T18:29:50.511Z,15
2017-04-28T18:30:39.540Z,15
2017-04-28T18:31:28.171Z,15
2017-04-28T18:32:17.290Z,15
2017-04-28T18:33:06.128Z,10
2017-04-28T18:33:56.729Z,10
2017-04-28T18:34:47.917Z,10
2017-04-28T18:35:37.353Z,10
2017-04-28T18:36:26.955Z,10
2017-04-28T18:37:16.240Z,10
2017-04-28T18:38:04.965Z,10
2017-04-28T18:42:18.801Z,5
2017-04-28T18:46:37.240Z,0
2017-04-28T18:47:26.821Z,0
2017-04-28T18:48:15.213Z,0
2017-04-28T18:49:04.828Z,0
2017-04-28T18:53:06.323Z,0
2017-04-28T18:55:30.708Z,0
2017-04-28T18:56:19.712Z,0
2017-04-28T18:57:08.618Z,0
2017-04-28T18:57:57.340Z,0
2017-04-28T18:58:45.875Z,0
2017-04-28T19:03:04.451Z,0
2017-04-28T19:05:29.120Z,0
2017-04-28T19:06:17.647Z,0
2017-04-28T19:07:06.658Z,0
2017-04-28T19:09:37.791Z,0
2017-04-28T19:10:32.534Z,0
2017-04-28T19:13:23.893Z,0
2017-04-28T19:14:12.826Z,0
2017-04-28T19:15:00.955Z,0
2017-04-28T19:15:49.819Z,0
2017-04-28T19:16:38.424Z,0
2017-04-28T19:17:26.847Z,0
2017-04-28T19:18:15.445Z,0
2017-04-28T19:19:04.297Z,0
2017-04-28T19:19:53.244Z,0
2017-04-28T19:20:41.535Z,0
2017-04-28T19:21:30.366Z,0
2017-04-28T19:22:18.837Z,0
2017-04-28T19:23:08.062Z,0
2017-04-28T19:23:56.867Z,0
2017-04-28T19:24:45.757Z,0
2017-04-28T19:33:00.639Z,0
2017-04-28T19:33:49.493Z,0
2017-04-28T19:34:38.060Z,0
2017-04-28T19:35:27.318Z,0
2017-04-28T19:36:15.587Z,0
2017-04-28T19:37:04.651Z,0
2017-04-28T19:37:53.145Z,0
2017-04-28T19:38:41.680Z,0
2017-04-28T19:39:30.643Z,0
2017-04-28T19:40:18.991Z,0
2017-04-28T19:41:07.516Z,0
2017-04-28T19:41:56.881Z,0
2017-04-28T19:42:45.754Z,0
2017-04-28T19:43:34.351Z,0